createdAt,value
2022-12-01T00:02:30.190Z,11.60
2022-12-01T00:07:33.442Z,10.70
2022-12-01T00:12:36.547Z,12.10
2022-12-01T00:17:39.620Z,13.70
2022-12-01T00:22:44.269Z,12.60
2022-12-01T00:27:52.289Z,11.70
2022-12-01T00:32:55.396Z,13.80
2022-12-01T00:37:58.405Z,14.20
2022-12-01T00:43:01.416Z,12.00
2022-12-01T00:48:04.826Z,12.50
2022-12-01T00:53:07.836Z,10.70
2022-12-01T00:58:11.862Z,9.70
2022-12-01T01:03:14.869Z,11.80
2022-12-01T01:08:17.874Z,11.10
2022-12-01T01:13:20.785Z,10.30
2022-12-01T01:18:23.787Z,10.90
2022-12-01T01:23:27.306Z,10.60
2022-12-01T01:28:31.742Z,9.80
2022-12-01T01:33:34.854Z,10.30
2022-12-01T01:38:37.960Z,10.70
2022-12-01T01:43:40.967Z,10.20
2022-12-01T01:48:48.423Z,10.60
2022-12-01T01:53:54.508Z,9.90
2022-12-01T01:58:58.434Z,10.20
2022-12-01T02:04:01.576Z,7.60
2022-12-01T02:09:04.501Z,8.00
2022-12-01T02:14:26.345Z,8.50
2022-12-01T02:19:44.304Z,8.10
2022-12-01T02:25:02.361Z,7.60
2022-12-01T02:30:05.375Z,7.40
2022-12-01T02:35:49.437Z,7.30
2022-12-01T02:41:20.295Z,8.20
2022-12-01T02:46:23.276Z,8.00
2022-12-01T02:51:32.318Z,8.20
2022-12-01T02:56:35.255Z,7.50
2022-12-01T03:01:56.801Z,8.90
2022-12-01T03:07:37.820Z,7.50
2022-12-01T03:12:49.682Z,7.40
2022-12-01T03:18:24.539Z,7.40
2022-12-01T03:23:31.503Z,6.70
2022-12-01T03:28:39.249Z,7.40
2022-12-01T03:34:37.970Z,10.20
2022-12-01T03:39:44.072Z,9.20
2022-12-01T03:44:57.085Z,10.00
2022-12-01T03:50:00.931Z,9.70
2022-12-01T03:55:16.311Z,12.50
2022-12-01T04:00:20.461Z,10.80
2022-12-01T04:05:25.464Z,13.30
2022-12-01T04:10:28.705Z,11.90
2022-12-01T04:15:31.718Z,11.90
2022-12-01T04:20:34.722Z,12.30
2022-12-01T04:25:37.627Z,14.10
2022-12-01T04:30:40.633Z,13.80
2022-12-01T04:35:43.641Z,13.70
2022-12-01T04:40:46.849Z,15.30
2022-12-01T04:45:49.961Z,14.90
2022-12-01T04:50:52.963Z,15.40
2022-12-01T04:55:56.070Z,15.70
2022-12-01T05:01:04.091Z,16.20
2022-12-01T05:06:11.382Z,16.40
2022-12-01T05:11:14.927Z,15.20
2022-12-01T05:16:30.124Z,15.70
2022-12-01T05:21:33.121Z,18.30
2022-12-01T05:26:36.225Z,15.60
2022-12-01T05:31:39.985Z,18.40
2022-12-01T05:36:43.058Z,17.30
2022-12-01T05:41:45.960Z,21.30
2022-12-01T05:46:49.072Z,18.40
2022-12-01T05:51:52.281Z,18.90
2022-12-01T05:56:55.287Z,17.40
2022-12-01T06:01:58.488Z,20.90
2022-12-01T06:07:01.620Z,20.90
2022-12-01T06:12:04.824Z,20.10
2022-12-01T06:17:07.929Z,17.90
2022-12-01T06:22:11.241Z,19.00
2022-12-01T06:27:14.348Z,20.20
2022-12-01T06:32:17.866Z,19.80
2022-12-01T06:37:21.077Z,20.30
2022-12-01T06:42:24.085Z,20.00
2022-12-01T06:47:27.601Z,22.30
2022-12-01T06:52:30.506Z,22.30
2022-12-01T06:57:33.513Z,21.50
2022-12-01T07:02:36.676Z,20.50
2022-12-01T07:07:40.300Z,19.90
2022-12-01T07:12:43.351Z,24.60
2022-12-01T07:17:46.256Z,19.50
2022-12-01T07:22:49.465Z,17.60
2022-12-01T07:27:52.369Z,22.20
2022-12-01T07:32:55.380Z,20.80
2022-12-01T07:37:58.488Z,20.20
2022-12-01T07:43:01.490Z,23.80
2022-12-01T07:48:04.603Z,23.30
2022-12-01T07:53:07.502Z,28.80
2022-12-01T07:58:10.408Z,24.10
2022-12-01T08:03:13.658Z,30.80
2022-12-01T08:08:16.652Z,30.70
2022-12-01T08:13:20.925Z,27.00
2022-12-01T08:18:24.687Z,26.80
2022-12-01T08:23:27.799Z,26.40
2022-12-01T08:28:31.827Z,23.30
2022-12-01T08:33:35.038Z,27.70
2022-12-01T08:38:38.352Z,25.00
2022-12-01T08:44:00.415Z,21.20
2022-12-01T08:49:06.344Z,23.80
2022-12-01T08:54:11.222Z,28.10
2022-12-01T08:59:14.340Z,21.10
2022-12-01T09:04:22.367Z,26.30
2022-12-01T09:09:28.597Z,31.20
2022-12-01T09:14:31.647Z,26.80
2022-12-01T09:19:35.554Z,28.20
2022-12-01T09:24:38.791Z,29.10
2022-12-01T09:29:41.902Z,28.20
2022-12-01T09:34:45.111Z,28.90
2022-12-01T09:39:48.463Z,28.20
2022-12-01T09:44:54.611Z,28.70
2022-12-01T09:50:16.657Z,24.40
2022-12-01T09:55:23.328Z,26.30
2022-12-01T10:00:31.909Z,26.90
2022-12-01T10:11:40.203Z,27.20
2022-12-01T10:16:55.811Z,29.60
2022-12-01T10:22:13.917Z,24.00
2022-12-01T10:27:16.820Z,26.80
2022-12-01T10:32:26.433Z,25.60
2022-12-01T10:37:30.952Z,28.40
2022-12-01T10:42:41.327Z,31.00
2022-12-01T10:48:09.449Z,33.30
2022-12-01T10:53:32.415Z,33.40
2022-12-01T10:58:49.918Z,31.30
2022-12-01T11:04:42.691Z,39.30
2022-12-01T11:09:48.688Z,30.70
2022-12-01T11:14:54.645Z,26.80
2022-12-01T11:19:57.789Z,33.40
2022-12-01T11:25:05.675Z,27.10
2022-12-01T11:30:21.483Z,30.50
2022-12-01T11:35:32.168Z,26.00
2022-12-01T11:40:56.340Z,28.00
2022-12-01T11:46:07.692Z,26.70
2022-12-01T11:51:20.140Z,28.90
2022-12-01T11:56:28.801Z,26.60
2022-12-01T12:01:40.857Z,24.30
2022-12-01T12:07:01.476Z,24.60
2022-12-01T12:12:10.422Z,26.30
2022-12-01T12:17:28.242Z,26.20
2022-12-01T12:22:40.397Z,23.30
2022-12-01T12:28:03.275Z,23.90
2022-12-01T12:33:42.639Z,22.70
2022-12-01T12:39:01.301Z,26.60
2022-12-01T12:44:25.707Z,25.00
2022-12-01T12:49:44.392Z,23.80
2022-12-01T12:54:51.797Z,23.70
2022-12-01T13:00:03.608Z,25.20
2022-12-01T13:05:18.925Z,24.30
2022-12-01T13:10:43.410Z,25.90
2022-12-01T13:15:50.690Z,20.10
2022-12-01T13:20:55.979Z,23.40
2022-12-01T13:26:01.749Z,28.40
2022-12-01T13:31:11.345Z,26.30
2022-12-01T13:41:39.704Z,29.90
2022-12-01T13:46:42.998Z,30.20
2022-12-01T13:52:23.369Z,25.80
2022-12-01T13:57:29.428Z,24.80
2022-12-01T14:02:35.176Z,25.80
2022-12-01T14:07:39.054Z,27.20
2022-12-01T14:12:46.030Z,25.50
2022-12-01T14:18:00.695Z,30.10
2022-12-01T14:23:24.795Z,28.30
2022-12-01T14:28:56.045Z,32.00
2022-12-01T14:34:01.634Z,27.30
2022-12-01T14:39:13.265Z,29.70
2022-12-01T14:44:36.152Z,24.20
2022-12-01T14:49:57.653Z,32.50
2022-12-01T14:55:07.321Z,30.40
2022-12-01T15:00:16.615Z,34.10
2022-12-01T15:05:27.481Z,28.90
2022-12-01T15:10:35.458Z,24.10
2022-12-01T15:15:53.449Z,30.10
2022-12-01T15:21:02.053Z,33.10
2022-12-01T15:26:05.361Z,30.20
2022-12-01T15:31:12.954Z,30.90
2022-12-01T15:36:16.557Z,27.70
2022-12-01T15:41:29.936Z,33.60
2022-12-01T15:46:34.746Z,29.60
2022-12-01T15:51:37.939Z,43.90
2022-12-01T15:56:41.869Z,40.20
2022-12-01T16:01:45.658Z,45.60
2022-12-01T16:07:10.203Z,44.10
2022-12-01T16:12:22.219Z,43.10
2022-12-01T16:17:26.431Z,39.40
2022-12-01T16:22:29.563Z,42.10
2022-12-01T16:27:32.778Z,46.00
2022-12-01T16:32:43.995Z,46.50
2022-12-01T16:37:47.194Z,49.30
2022-12-01T16:42:50.601Z,50.40
2022-12-01T16:47:53.619Z,53.40
2022-12-01T16:52:56.723Z,37.20
2022-12-01T16:57:59.830Z,38.60
2022-12-01T17:03:04.579Z,37.40
2022-12-01T17:08:07.735Z,34.60
2022-12-01T17:13:11.860Z,42.60
2022-12-01T17:18:17.072Z,39.30
2022-12-01T17:23:20.176Z,41.80
2022-12-01T17:28:23.289Z,38.90
2022-12-01T17:33:26.295Z,36.80
2022-12-01T17:38:29.527Z,39.50
2022-12-01T17:43:34.766Z,42.90
2022-12-01T17:48:40.640Z,33.90
2022-12-01T17:53:43.644Z,37.90
2022-12-01T17:58:49.473Z,35.80
2022-12-01T18:03:53.038Z,40.20
2022-12-01T18:08:57.620Z,42.20
2022-12-01T18:14:01.530Z,35.00
2022-12-01T18:19:04.726Z,40.10
2022-12-01T18:24:12.025Z,37.70
2022-12-01T18:29:25.905Z,35.60
2022-12-01T18:34:32.034Z,39.70
2022-12-01T18:39:35.080Z,37.20
2022-12-01T18:44:39.106Z,28.20
2022-12-01T18:49:42.310Z,28.20
2022-12-01T18:54:45.419Z,36.10
2022-12-01T18:59:48.543Z,33.80
2022-12-01T19:04:51.841Z,37.50
2022-12-01T19:09:55.164Z,33.80
2022-12-01T19:14:58.463Z,40.10
2022-12-01T19:20:01.783Z,34.10
2022-12-01T19:25:05.742Z,32.40
2022-12-01T19:30:09.362Z,28.90
2022-12-01T19:35:12.651Z,28.10
2022-12-01T19:40:15.877Z,33.60
2022-12-01T19:45:19.073Z,38.20
2022-12-01T19:50:22.085Z,30.30
2022-12-01T19:55:25.394Z,32.00
2022-12-01T20:00:28.609Z,30.90
2022-12-01T20:05:32.819Z,33.30
2022-12-01T20:10:35.843Z,31.40
2022-12-01T20:15:39.071Z,20.60
2022-12-01T20:20:42.367Z,27.10
2022-12-01T20:25:45.269Z,24.50
2022-12-01T20:30:48.282Z,31.90
2022-12-01T20:35:51.801Z,32.80
2022-12-01T20:40:55.243Z,36.60
2022-12-01T20:45:58.280Z,31.20
2022-12-01T20:51:03.894Z,33.40
2022-12-01T20:56:10.038Z,29.70
2022-12-01T21:01:16.475Z,34.10
2022-12-01T21:06:20.588Z,29.90
2022-12-01T21:11:47.865Z,31.40
2022-12-01T21:16:55.331Z,32.90
2022-12-01T21:21:59.040Z,30.70
2022-12-01T21:27:13.165Z,33.20
2022-12-01T21:32:19.957Z,28.80
2022-12-01T21:37:25.112Z,33.60
2022-12-01T21:42:31.715Z,33.10
2022-12-01T21:47:35.076Z,28.70
2022-12-01T21:52:42.019Z,23.80
2022-12-01T21:57:47.298Z,29.30
2022-12-01T22:02:52.529Z,26.80
2022-12-01T22:08:10.022Z,25.70
2022-12-01T22:13:13.199Z,26.80
2022-12-01T22:18:25.504Z,32.70
2022-12-01T22:23:34.062Z,30.10
2022-12-01T22:28:37.169Z,22.70
2022-12-01T22:33:40.174Z,28.50
2022-12-01T22:38:43.481Z,25.50
2022-12-01T22:43:49.565Z,24.80
2022-12-01T22:49:01.171Z,28.60
2022-12-01T22:54:10.323Z,25.20
2022-12-01T22:59:15.324Z,21.90
2022-12-01T23:04:29.745Z,32.30
2022-12-01T23:09:40.546Z,23.50
2022-12-01T23:14:46.612Z,28.80
2022-12-01T23:19:52.441Z,25.50
2022-12-01T23:24:55.391Z,26.60
2022-12-01T23:29:59.225Z,24.80
2022-12-01T23:35:02.669Z,23.50
2022-12-01T23:40:20.691Z,24.80
2022-12-01T23:45:26.001Z,23.20
2022-12-01T23:50:30.755Z,24.30
2022-12-01T23:55:34.522Z,28.90
